createdAt,value
2022-07-30T00:00:19.814Z,33
2022-07-30T00:01:19.549Z,34
2022-07-30T00:02:20.455Z,33
2022-07-30T00:03:21.489Z,34
2022-07-30T00:04:22.537Z,34
2022-07-30T00:05:23.494Z,34
2022-07-30T00:06:24.414Z,35
2022-07-30T00:07:25.389Z,33
2022-07-30T00:08:26.475Z,33
2022-07-30T00:09:27.494Z,35
2022-07-30T00:10:28.455Z,34
2022-07-30T00:11:29.419Z,34
2022-07-30T00:12:30.515Z,34
2022-07-30T00:13:31.414Z,34
2022-07-30T00:14:32.474Z,33
2022-07-30T00:15:33.437Z,34
2022-07-30T00:16:34.582Z,35
2022-07-30T00:17:35.434Z,34
2022-07-30T00:18:36.456Z,33
2022-07-30T00:19:52.485Z,34
2022-07-30T00:20:55.574Z,34
2022-07-30T00:21:57.613Z,34
2022-07-30T00:22:59.455Z,34
2022-07-30T00:24:01.268Z,34
2022-07-30T00:25:02.436Z,34
2022-07-30T00:26:03.454Z,33
2022-07-30T00:27:04.536Z,33
2022-07-30T00:28:05.517Z,34
2022-07-30T00:29:06.504Z,34
2022-07-30T00:30:07.474Z,34
2022-07-30T00:31:08.564Z,33
2022-07-30T00:32:09.455Z,33
2022-07-30T00:33:10.522Z,34
2022-07-30T00:34:11.522Z,33
2022-07-30T00:35:12.473Z,34
2022-07-30T00:36:13.453Z,33
2022-07-30T00:37:14.494Z,33
2022-07-30T00:38:15.515Z,34
2022-07-30T00:39:16.616Z,33
2022-07-30T00:40:18.439Z,32
2022-07-30T00:41:19.476Z,33
2022-07-30T00:42:20.433Z,33
2022-07-30T00:43:21.435Z,33
2022-07-30T00:44:22.557Z,33
2022-07-30T00:45:23.513Z,33
2022-07-30T00:46:24.554Z,33
2022-07-30T00:47:25.491Z,33
2022-07-30T00:48:26.497Z,35
2022-07-30T00:49:27.493Z,34
2022-07-30T00:50:28.453Z,33
2022-07-30T00:51:29.455Z,33
2022-07-30T00:52:30.418Z,32
2022-07-30T00:53:31.474Z,33
2022-07-30T00:54:32.454Z,32
2022-07-30T00:55:33.475Z,33
2022-07-30T00:56:34.494Z,33
2022-07-30T00:57:35.497Z,34
2022-07-30T00:58:36.497Z,34
2022-07-30T00:59:37.513Z,33
2022-07-30T01:03:49.445Z,34
2022-07-30T01:04:50.460Z,34
2022-07-30T01:05:51.538Z,33
2022-07-30T01:06:52.558Z,32
2022-07-30T01:07:54.578Z,33
2022-07-30T01:08:55.509Z,33
2022-07-30T01:09:56.498Z,33
2022-07-30T01:12:20.445Z,33
2022-07-30T01:13:21.478Z,32
2022-07-30T01:14:22.586Z,34
2022-07-30T01:15:23.498Z,34
2022-07-30T01:16:24.560Z,33
2022-07-30T01:17:25.538Z,34
2022-07-30T01:18:26.438Z,34
2022-07-30T01:19:27.478Z,33
2022-07-30T01:20:28.477Z,35
2022-07-30T01:21:29.557Z,33
2022-07-30T01:22:31.201Z,34
2022-07-30T01:23:32.578Z,33
2022-07-30T01:24:34.578Z,32
2022-07-30T01:25:36.438Z,33
2022-07-30T01:26:37.525Z,34
2022-07-30T01:27:39.039Z,34
2022-07-30T01:28:40.471Z,34
2022-07-30T01:29:41.558Z,33
2022-07-30T01:30:42.510Z,33
2022-07-30T01:31:43.505Z,33
2022-07-30T01:32:44.473Z,33
2022-07-30T01:33:45.555Z,33
2022-07-30T01:34:47.618Z,34
2022-07-30T01:35:49.482Z,33
2022-07-30T01:36:50.458Z,33
2022-07-30T01:37:51.478Z,33
2022-07-30T01:38:52.507Z,34
2022-07-30T01:39:53.639Z,33
2022-07-30T01:40:54.538Z,34
2022-07-30T01:41:55.497Z,34
2022-07-30T01:42:56.477Z,34
2022-07-30T01:43:57.559Z,33
2022-07-30T01:44:58.552Z,33
2022-07-30T01:45:59.579Z,33
2022-07-30T01:47:00.803Z,32
2022-07-30T01:48:01.637Z,32
2022-07-30T01:49:03.700Z,33
2022-07-30T01:50:05.624Z,34
2022-07-30T01:51:07.477Z,33
2022-07-30T01:52:08.518Z,33
2022-07-30T01:53:09.478Z,34
2022-07-30T01:54:10.518Z,34
2022-07-30T01:55:17.331Z,32
2022-07-30T01:56:12.579Z,32
2022-07-30T01:57:13.621Z,33
2022-07-30T01:58:14.534Z,33
2022-07-30T01:59:15.498Z,33
2022-07-30T02:00:16.520Z,33
2022-07-30T02:01:17.572Z,33
2022-07-30T02:02:18.558Z,33
2022-07-30T02:03:19.690Z,33
2022-07-30T02:04:21.558Z,34
2022-07-30T02:05:22.638Z,-1
2022-07-30T02:06:24.556Z,33
2022-07-30T02:07:25.558Z,33
2022-07-30T02:08:26.558Z,33
2022-07-30T02:09:27.548Z,33
2022-07-30T02:10:28.587Z,33
2022-07-30T02:11:29.559Z,32
2022-07-30T02:12:30.579Z,33
2022-07-30T02:13:31.619Z,33
2022-07-30T02:14:33.560Z,33
2022-07-30T02:15:34.578Z,33
2022-07-30T02:16:35.566Z,32
2022-07-30T02:17:39.702Z,33
2022-07-30T02:18:39.513Z,33
2022-07-30T02:19:39.915Z,33
2022-07-30T02:20:40.578Z,32
2022-07-30T02:21:44.460Z,33
2022-07-30T02:22:43.897Z,33
2022-07-30T02:23:45.642Z,33
2022-07-30T02:24:46.659Z,34
2022-07-30T02:25:52.189Z,33
2022-07-30T02:26:53.741Z,33
2022-07-30T02:27:55.520Z,33
2022-07-30T02:28:56.559Z,33
2022-07-30T02:30:02.897Z,32
2022-07-30T02:31:16.860Z,33
2022-07-30T02:32:05.539Z,33
2022-07-30T02:33:06.497Z,34
2022-07-30T02:34:07.546Z,33
2022-07-30T02:35:08.577Z,33
2022-07-30T02:36:11.144Z,33
2022-07-30T02:37:10.559Z,33
2022-07-30T02:38:11.518Z,33
2022-07-30T02:39:12.546Z,33
2022-07-30T02:40:13.759Z,33
2022-07-30T02:41:15.605Z,33
2022-07-30T02:42:16.528Z,33
2022-07-30T02:43:17.677Z,33
2022-07-30T02:44:19.659Z,33
2022-07-30T02:45:21.557Z,32
2022-07-30T02:46:22.582Z,33
2022-07-30T02:47:23.657Z,32
2022-07-30T02:48:28.380Z,32
2022-07-30T02:49:25.557Z,34
2022-07-30T02:50:26.537Z,33
2022-07-30T02:51:27.506Z,33
2022-07-30T02:52:28.517Z,33
2022-07-30T02:53:29.578Z,34
2022-07-30T02:54:31.363Z,33
2022-07-30T02:55:31.499Z,34
2022-07-30T02:56:32.577Z,34
2022-07-30T02:57:33.597Z,34
2022-07-30T02:58:34.605Z,33
2022-07-30T02:59:35.557Z,33
2022-07-30T03:00:36.645Z,33
2022-07-30T03:01:37.591Z,33
2022-07-30T03:02:38.599Z,33
2022-07-30T03:03:39.537Z,34
2022-07-30T03:04:40.539Z,34
2022-07-30T03:05:41.866Z,33
2022-07-30T03:06:43.538Z,33
2022-07-30T03:07:44.525Z,33
2022-07-30T03:08:45.538Z,34
2022-07-30T03:09:51.223Z,33
2022-07-30T03:10:47.537Z,34
2022-07-30T03:11:48.578Z,34
2022-07-30T03:12:49.559Z,33
2022-07-30T03:13:50.559Z,33
2022-07-30T03:14:51.605Z,33
2022-07-30T03:15:52.616Z,34
2022-07-30T03:16:53.638Z,34
2022-07-30T03:17:55.535Z,34
2022-07-30T03:18:55.581Z,34
2022-07-30T03:19:56.539Z,33
2022-07-30T03:20:57.579Z,33
2022-07-30T03:21:58.598Z,33
2022-07-30T03:22:59.601Z,33
2022-07-30T03:24:00.519Z,33
2022-07-30T03:25:01.640Z,33
2022-07-30T03:26:03.659Z,33
2022-07-30T03:27:04.661Z,33
2022-07-30T03:28:05.486Z,33
2022-07-30T03:29:06.570Z,34
2022-07-30T03:30:07.601Z,34
2022-07-30T03:31:08.740Z,33
2022-07-30T03:32:10.597Z,35
2022-07-30T03:33:11.537Z,36
2022-07-30T03:34:12.637Z,35
2022-07-30T03:35:16.847Z,35
2022-07-30T03:36:14.598Z,34
2022-07-30T03:37:15.578Z,35
2022-07-30T03:38:16.568Z,35
2022-07-30T03:39:17.578Z,34
2022-07-30T03:40:18.580Z,33
2022-07-30T03:41:19.678Z,34
2022-07-30T03:42:20.519Z,34
2022-07-30T03:43:32.919Z,34
2022-07-30T03:44:22.599Z,34
2022-07-30T03:45:23.677Z,33
2022-07-30T03:46:24.655Z,34
2022-07-30T03:47:25.658Z,33
2022-07-30T03:48:26.646Z,34
2022-07-30T03:49:27.640Z,33
2022-07-30T03:50:28.579Z,34
2022-07-30T03:51:30.660Z,35
2022-07-30T03:52:30.579Z,35
2022-07-30T03:53:31.604Z,36
2022-07-30T03:54:32.659Z,37
2022-07-30T03:55:34.691Z,38
2022-07-30T03:56:35.595Z,37
2022-07-30T03:57:36.599Z,38
2022-07-30T03:58:37.559Z,37
2022-07-30T03:59:38.618Z,37
2022-07-30T04:00:39.619Z,36
2022-07-30T04:01:40.644Z,37
2022-07-30T04:02:41.598Z,36
2022-07-30T04:03:42.754Z,36
2022-07-30T04:04:43.599Z,37
2022-07-30T04:05:44.597Z,37
2022-07-30T04:06:45.577Z,36
2022-07-30T04:07:46.620Z,35
2022-07-30T04:08:47.557Z,34
2022-07-30T04:09:48.578Z,34
2022-07-30T04:10:49.538Z,34
2022-07-30T04:11:50.597Z,34
2022-07-30T04:12:51.599Z,33
2022-07-30T04:13:52.637Z,33
2022-07-30T04:14:53.657Z,33
2022-07-30T04:16:04.680Z,35
2022-07-30T04:16:55.732Z,33
2022-07-30T04:17:56.598Z,33
2022-07-30T04:18:57.658Z,34
2022-07-30T04:19:58.560Z,33
2022-07-30T04:20:59.619Z,33
2022-07-30T04:22:00.709Z,33
2022-07-30T04:23:02.773Z,33
2022-07-30T04:24:05.690Z,33
2022-07-30T04:25:05.618Z,34
2022-07-30T04:26:06.577Z,33
2022-07-30T04:27:07.637Z,33
2022-07-30T04:28:08.619Z,33
2022-07-30T04:29:09.597Z,33
2022-07-30T04:30:10.649Z,34
2022-07-30T04:31:11.629Z,33
2022-07-30T04:32:12.698Z,33
2022-07-30T04:33:13.685Z,33
2022-07-30T04:34:14.642Z,34
2022-07-30T04:35:23.894Z,34
2022-07-30T04:36:16.662Z,33
2022-07-30T04:37:17.778Z,33
2022-07-30T04:38:19.822Z,33
2022-07-30T04:39:21.679Z,33
2022-07-30T04:40:23.580Z,33
2022-07-30T04:41:24.618Z,33
2022-07-30T04:42:25.740Z,34
2022-07-30T04:43:26.659Z,34
2022-07-30T04:44:27.603Z,33
2022-07-30T04:45:28.682Z,33
2022-07-30T04:46:29.653Z,33
2022-07-30T04:47:30.663Z,33
2022-07-30T04:48:31.557Z,34
2022-07-30T04:49:32.659Z,33
2022-07-30T04:50:33.798Z,33
2022-07-30T04:51:35.536Z,33
2022-07-30T04:52:36.657Z,34
2022-07-30T04:53:37.878Z,34
2022-07-30T04:54:39.598Z,34
2022-07-30T04:55:40.697Z,34
2022-07-30T04:56:41.677Z,34
2022-07-30T04:57:42.650Z,35
2022-07-30T04:58:43.549Z,34
2022-07-30T04:59:44.619Z,33
2022-07-30T05:00:45.633Z,34
2022-07-30T05:01:46.719Z,34
2022-07-30T05:02:47.598Z,33
2022-07-30T05:03:48.598Z,35
2022-07-30T05:04:49.753Z,33
2022-07-30T05:05:52.980Z,33
2022-07-30T05:06:51.637Z,33
2022-07-30T05:07:52.701Z,32
2022-07-30T05:08:53.718Z,32
2022-07-30T05:09:54.547Z,34
2022-07-30T05:10:55.657Z,33
2022-07-30T05:11:56.681Z,33
2022-07-30T05:12:57.658Z,33
2022-07-30T05:13:58.641Z,32
2022-07-30T05:14:59.605Z,33
2022-07-30T05:16:00.604Z,33
2022-07-30T05:17:01.940Z,33
2022-07-30T05:18:02.779Z,32
2022-07-30T05:19:07.391Z,33
2022-07-30T05:20:06.618Z,34
2022-07-30T05:21:07.638Z,34
2022-07-30T05:22:08.639Z,34
2022-07-30T05:23:09.702Z,34
2022-07-30T05:24:10.859Z,34
2022-07-30T05:25:16.221Z,34
2022-07-30T05:26:13.678Z,34
2022-07-30T05:27:14.639Z,34
2022-07-30T05:28:15.658Z,34
2022-07-30T05:29:19.753Z,35
2022-07-30T05:30:18.738Z,34
2022-07-30T05:31:21.145Z,34
2022-07-30T05:32:22.741Z,35
2022-07-30T05:33:38.877Z,34
2022-07-30T05:34:25.661Z,34
2022-07-30T05:35:26.698Z,34
2022-07-30T05:36:27.659Z,33
2022-07-30T05:37:28.638Z,35
2022-07-30T05:38:29.721Z,35
2022-07-30T05:39:31.678Z,34
2022-07-30T05:40:32.698Z,34
2022-07-30T05:41:33.757Z,35
2022-07-30T05:42:35.737Z,34
2022-07-30T05:43:37.660Z,34
2022-07-30T05:44:38.724Z,34
2022-07-30T05:45:39.620Z,34
2022-07-30T05:46:40.718Z,34
2022-07-30T05:47:41.639Z,33
2022-07-30T05:48:42.953Z,33
2022-07-30T05:49:44.627Z,34
2022-07-30T05:50:45.667Z,34
2022-07-30T05:51:46.658Z,34
2022-07-30T05:52:47.719Z,34
2022-07-30T05:53:48.799Z,33
2022-07-30T05:54:50.659Z,33
2022-07-30T05:55:51.738Z,33
2022-07-30T05:56:53.740Z,33
2022-07-30T05:57:55.653Z,33
2022-07-30T05:58:56.807Z,35
2022-07-30T05:59:58.716Z,35
2022-07-30T06:00:59.999Z,34
2022-07-30T06:02:01.893Z,35
2022-07-30T06:03:03.741Z,36
2022-07-30T06:04:04.779Z,34
2022-07-30T06:05:05.855Z,34
2022-07-30T06:06:07.790Z,34
2022-07-30T06:07:08.789Z,33
2022-07-30T06:08:10.670Z,33
2022-07-30T06:09:11.739Z,33
2022-07-30T06:10:12.758Z,34
2022-07-30T06:11:14.799Z,34
2022-07-30T06:12:16.739Z,33
2022-07-30T06:13:17.675Z,33
2022-07-30T06:14:18.758Z,33
2022-07-30T06:15:23.194Z,34
2022-07-30T06:16:21.631Z,33
2022-07-30T06:17:22.681Z,34
2022-07-30T06:18:23.719Z,33
2022-07-30T06:19:24.719Z,33
2022-07-30T06:20:25.658Z,33
2022-07-30T06:21:26.737Z,34
2022-07-30T06:22:27.699Z,34
2022-07-30T06:23:28.699Z,34
2022-07-30T06:24:29.778Z,34
2022-07-30T06:25:30.701Z,33
2022-07-30T06:26:31.776Z,33
2022-07-30T06:27:35.547Z,33
2022-07-30T06:28:38.360Z,34
2022-07-30T06:29:34.841Z,34
2022-07-30T06:30:36.784Z,34
2022-07-30T06:31:37.659Z,34
2022-07-30T06:32:38.700Z,34
2022-07-30T06:33:39.735Z,35
2022-07-30T06:34:40.718Z,34
2022-07-30T06:35:41.821Z,33
2022-07-30T06:36:43.699Z,33
2022-07-30T06:37:57.703Z,33
2022-07-30T06:38:45.658Z,33
2022-07-30T06:39:57.247Z,33
2022-07-30T06:40:47.760Z,33
2022-07-30T06:41:48.933Z,33
2022-07-30T06:42:50.840Z,33
2022-07-30T06:43:52.717Z,33
2022-07-30T06:44:54.838Z,34
2022-07-30T06:45:56.831Z,34
2022-07-30T06:47:01.018Z,33
2022-07-30T06:47:59.803Z,33
2022-07-30T06:49:01.862Z,34
2022-07-30T06:50:03.860Z,33
2022-07-30T06:51:05.779Z,34
2022-07-30T06:52:07.825Z,34
2022-07-30T06:53:13.175Z,33
2022-07-30T06:54:14.856Z,33
2022-07-30T06:55:16.879Z,34
2022-07-30T06:56:18.850Z,33
2022-07-30T06:57:20.878Z,34
2022-07-30T06:58:25.460Z,33
2022-07-30T06:59:23.679Z,33
2022-07-30T07:00:24.825Z,33
2022-07-30T07:01:25.762Z,33
2022-07-30T07:02:26.698Z,34
2022-07-30T07:03:39.583Z,33
2022-07-30T07:04:29.858Z,33
2022-07-30T07:05:31.699Z,34
2022-07-30T07:06:32.741Z,33
2022-07-30T07:07:41.614Z,33
2022-07-30T07:08:35.800Z,35
2022-07-30T07:09:38.471Z,34
2022-07-30T07:10:38.723Z,34
2022-07-30T07:11:39.738Z,34
2022-07-30T07:12:40.835Z,33
2022-07-30T07:13:42.779Z,33
2022-07-30T07:14:43.738Z,33
2022-07-30T07:15:44.815Z,33
2022-07-30T07:16:49.075Z,33
2022-07-30T07:17:47.774Z,33
2022-07-30T07:18:49.821Z,33
2022-07-30T07:19:59.360Z,34
2022-07-30T07:20:53.839Z,35
2022-07-30T07:21:55.763Z,34
2022-07-30T07:22:57.828Z,33
2022-07-30T07:23:59.719Z,33
2022-07-30T07:25:00.766Z,33
2022-07-30T07:26:01.821Z,33
2022-07-30T07:27:02.996Z,32
2022-07-30T07:28:11.352Z,33
2022-07-30T07:29:05.310Z,33
2022-07-30T07:30:06.290Z,33
2022-07-30T07:31:06.762Z,33
2022-07-30T07:32:08.210Z,34
2022-07-30T07:33:09.698Z,33
2022-07-30T07:34:13.178Z,34
2022-07-30T07:35:11.690Z,33
2022-07-30T07:36:12.697Z,33
2022-07-30T07:37:13.693Z,32
2022-07-30T07:38:14.718Z,34
2022-07-30T07:39:15.779Z,33
2022-07-30T07:40:16.720Z,34
2022-07-30T07:41:17.738Z,33
2022-07-30T07:42:18.687Z,33
2022-07-30T07:43:19.738Z,33
2022-07-30T07:44:20.739Z,33
2022-07-30T07:45:21.719Z,33
2022-07-30T07:46:33.332Z,33
2022-07-30T07:47:23.720Z,34
2022-07-30T07:48:24.780Z,35
2022-07-30T07:49:25.904Z,35
2022-07-30T07:50:26.782Z,34
2022-07-30T07:51:34.806Z,33
2022-07-30T07:52:28.731Z,34
2022-07-30T07:53:29.779Z,34
2022-07-30T07:54:30.786Z,34
2022-07-30T07:55:32.267Z,34
2022-07-30T07:56:33.764Z,34
2022-07-30T07:57:34.799Z,34
2022-07-30T07:58:36.688Z,34
2022-07-30T07:59:39.893Z,33
2022-07-30T08:00:39.567Z,33
2022-07-30T08:01:40.805Z,34
2022-07-30T08:02:41.741Z,34
2022-07-30T08:03:42.784Z,37
2022-07-30T08:04:43.692Z,35
2022-07-30T08:05:53.997Z,35
2022-07-30T08:06:45.689Z,35
2022-07-30T08:07:46.679Z,37
2022-07-30T08:08:47.761Z,34
2022-07-30T08:09:48.760Z,34
2022-07-30T08:10:49.878Z,33
2022-07-30T08:11:50.758Z,33
2022-07-30T08:12:51.702Z,34
2022-07-30T08:13:53.184Z,34
2022-07-30T08:14:53.839Z,34
2022-07-30T08:15:55.880Z,34
2022-07-30T08:16:57.913Z,34
2022-07-30T08:17:59.915Z,35
2022-07-30T08:19:01.840Z,33
2022-07-30T08:20:03.897Z,34
2022-07-30T08:21:05.839Z,34
2022-07-30T08:22:06.724Z,34
2022-07-30T08:23:07.680Z,33
2022-07-30T08:24:08.742Z,33
2022-07-30T08:25:09.767Z,34
2022-07-30T08:26:10.762Z,33
2022-07-30T08:27:11.861Z,33
2022-07-30T08:28:20.153Z,33
2022-07-30T08:29:17.293Z,33
2022-07-30T08:30:16.781Z,33
2022-07-30T08:31:17.776Z,33
2022-07-30T08:32:18.759Z,33
2022-07-30T08:33:19.859Z,33
2022-07-30T08:34:25.698Z,33
2022-07-30T08:35:23.761Z,33
2022-07-30T08:36:25.955Z,34
2022-07-30T08:37:25.822Z,33
2022-07-30T08:38:26.819Z,34
2022-07-30T08:39:27.755Z,33
2022-07-30T08:40:28.719Z,36
2022-07-30T08:41:29.729Z,34
2022-07-30T08:42:30.798Z,34
2022-07-30T08:43:31.796Z,33
2022-07-30T08:44:32.757Z,33
2022-07-30T08:45:34.442Z,35
2022-07-30T08:46:35.772Z,34
2022-07-30T08:47:36.795Z,34
2022-07-30T08:48:37.899Z,34
2022-07-30T08:49:39.865Z,34
2022-07-30T08:50:41.778Z,34
2022-07-30T08:51:42.802Z,34
2022-07-30T08:52:43.870Z,35
2022-07-30T08:53:45.800Z,34
2022-07-30T08:54:46.806Z,35
2022-07-30T08:55:47.798Z,35
2022-07-30T08:56:48.840Z,34
2022-07-30T08:57:49.839Z,34
2022-07-30T08:58:50.798Z,34
2022-07-30T08:59:53.077Z,33
2022-07-30T09:00:53.820Z,34
2022-07-30T09:01:54.738Z,35
2022-07-30T09:02:55.778Z,34
2022-07-30T09:03:56.909Z,35
2022-07-30T09:04:58.799Z,35
2022-07-30T09:05:59.760Z,35
2022-07-30T09:07:00.981Z,35
2022-07-30T09:08:02.572Z,35
2022-07-30T09:09:02.818Z,35
2022-07-30T09:10:03.924Z,34
2022-07-30T09:11:05.778Z,36
2022-07-30T09:12:06.721Z,36
2022-07-30T09:13:07.747Z,36
2022-07-30T09:14:08.821Z,37
2022-07-30T09:15:09.782Z,35
2022-07-30T09:16:10.789Z,35
2022-07-30T09:17:11.778Z,35
2022-07-30T09:18:12.859Z,36
2022-07-30T09:19:13.818Z,36
2022-07-30T09:20:14.804Z,35
2022-07-30T09:21:15.799Z,36
2022-07-30T09:22:16.819Z,36
2022-07-30T09:23:17.819Z,37
2022-07-30T09:24:18.879Z,37
2022-07-30T09:25:19.880Z,37
2022-07-30T09:26:20.762Z,37
2022-07-30T09:27:21.780Z,37
2022-07-30T09:28:22.798Z,37
2022-07-30T09:29:23.862Z,37
2022-07-30T09:30:27.235Z,38
2022-07-30T09:31:25.798Z,38
2022-07-30T09:32:26.875Z,38
2022-07-30T09:33:28.838Z,38
2022-07-30T09:34:29.883Z,38
2022-07-30T09:35:30.861Z,38
2022-07-30T09:36:31.799Z,38
2022-07-30T09:37:32.780Z,37
2022-07-30T09:38:33.799Z,39
2022-07-30T09:39:34.849Z,38
2022-07-30T09:40:35.838Z,38
2022-07-30T09:41:39.066Z,38
2022-07-30T09:42:37.818Z,38
2022-07-30T09:43:38.775Z,38
2022-07-30T09:44:39.839Z,38
2022-07-30T09:45:40.918Z,39
2022-07-30T09:46:41.778Z,38
2022-07-30T09:47:42.906Z,38
2022-07-30T09:48:43.829Z,38
2022-07-30T09:49:47.219Z,38
2022-07-30T09:50:45.846Z,38
2022-07-30T09:51:54.899Z,38
2022-07-30T09:52:48.912Z,39
2022-07-30T09:53:48.858Z,38
2022-07-30T09:54:50.898Z,38
2022-07-30T09:55:50.759Z,39
2022-07-30T09:56:53.585Z,40
2022-07-30T09:57:55.148Z,40
2022-07-30T09:58:53.860Z,40
2022-07-30T09:59:54.888Z,42
2022-07-30T10:00:55.859Z,42
2022-07-30T10:02:00.565Z,43
2022-07-30T10:02:57.838Z,43
2022-07-30T10:03:58.819Z,44
2022-07-30T10:04:59.771Z,44
2022-07-30T10:06:00.839Z,44
2022-07-30T10:07:01.858Z,44
2022-07-30T10:08:06.690Z,46
2022-07-30T10:09:13.821Z,46
2022-07-30T10:10:06.127Z,46
2022-07-30T10:11:08.708Z,46
2022-07-30T10:12:10.458Z,46
2022-07-30T10:13:08.818Z,46
2022-07-30T10:14:09.779Z,46
2022-07-30T10:15:10.923Z,46
2022-07-30T10:16:11.837Z,47
2022-07-30T10:17:13.029Z,47
2022-07-30T10:18:13.859Z,46
2022-07-30T10:19:18.153Z,48
2022-07-30T10:20:15.958Z,48
2022-07-30T10:21:17.073Z,49
2022-07-30T10:22:17.862Z,51
2022-07-30T10:23:21.440Z,51
2022-07-30T10:24:19.757Z,53
2022-07-30T10:25:22.939Z,51
2022-07-30T10:26:22.837Z,51
2022-07-30T10:27:23.817Z,51
2022-07-30T10:28:25.287Z,52
2022-07-30T10:29:33.525Z,52
2022-07-30T10:30:28.084Z,52
2022-07-30T10:31:46.623Z,51
2022-07-30T10:32:30.803Z,52
2022-07-30T10:33:35.334Z,52
2022-07-30T10:34:34.009Z,51
2022-07-30T10:35:35.086Z,51
2022-07-30T10:36:32.882Z,51
2022-07-30T10:37:33.918Z,52
2022-07-30T10:38:39.292Z,53
2022-07-30T10:39:35.777Z,52
2022-07-30T10:40:39.477Z,53
2022-07-30T10:41:42.165Z,54
2022-07-30T10:42:38.878Z,54
2022-07-30T10:43:39.798Z,54
2022-07-30T10:44:40.780Z,53
2022-07-30T10:45:43.153Z,56
2022-07-30T10:46:42.878Z,55
2022-07-30T10:47:44.639Z,55
2022-07-30T10:48:44.887Z,54
2022-07-30T10:49:45.934Z,54
2022-07-30T10:50:46.866Z,54
2022-07-30T10:51:47.828Z,54
2022-07-30T10:52:48.847Z,54
2022-07-30T10:53:49.958Z,55
2022-07-30T10:54:51.864Z,55
2022-07-30T10:55:52.891Z,54
2022-07-30T10:56:53.870Z,55
2022-07-30T10:57:54.897Z,54
2022-07-30T10:58:56.918Z,55
2022-07-30T11:00:00.059Z,56
2022-07-30T11:00:59.959Z,56
2022-07-30T11:02:02.615Z,57
2022-07-30T11:03:14.040Z,57
2022-07-30T11:04:05.973Z,58
2022-07-30T11:05:07.983Z,57
2022-07-30T11:06:09.909Z,56
2022-07-30T11:07:15.763Z,56
2022-07-30T11:08:13.946Z,57
2022-07-30T11:09:15.845Z,57
2022-07-30T11:10:16.878Z,57
2022-07-30T11:11:19.942Z,58
2022-07-30T11:12:19.092Z,58
2022-07-30T11:13:19.945Z,58
2022-07-30T11:14:21.038Z,59
2022-07-30T11:15:22.819Z,59
2022-07-30T11:16:23.798Z,59
2022-07-30T11:17:24.857Z,59
2022-07-30T11:18:25.937Z,58
2022-07-30T11:19:51.862Z,59
2022-07-30T11:20:29.057Z,58
2022-07-30T11:21:30.898Z,59
2022-07-30T11:22:33.205Z,59
2022-07-30T11:23:35.423Z,61
2022-07-30T11:24:36.946Z,62
2022-07-30T11:25:38.903Z,62
2022-07-30T11:26:40.884Z,62
2022-07-30T11:27:41.224Z,62
2022-07-30T11:28:41.878Z,60
2022-07-30T11:29:50.393Z,60
2022-07-30T11:30:43.898Z,59
2022-07-30T11:31:55.235Z,59
2022-07-30T11:32:56.280Z,58
2022-07-30T11:33:57.998Z,59
2022-07-30T11:34:59.978Z,58
2022-07-30T11:36:01.937Z,59
2022-07-30T11:37:17.866Z,60
2022-07-30T11:38:04.806Z,58
2022-07-30T11:39:07.469Z,59
2022-07-30T11:40:06.817Z,58
2022-07-30T11:41:07.836Z,59
2022-07-30T11:42:08.938Z,58
2022-07-30T11:43:09.878Z,59
2022-07-30T11:44:10.837Z,61
2022-07-30T11:45:11.898Z,60
2022-07-30T11:46:15.654Z,61
2022-07-30T11:47:13.878Z,64
2022-07-30T11:48:14.899Z,64
2022-07-30T11:49:15.918Z,64
2022-07-30T11:50:16.926Z,61
2022-07-30T11:51:17.838Z,61
2022-07-30T11:52:18.824Z,61
2022-07-30T11:53:19.857Z,61
2022-07-30T11:54:20.895Z,62
2022-07-30T11:55:21.879Z,62
2022-07-30T11:56:22.938Z,62
2022-07-30T11:57:23.864Z,62
2022-07-30T11:58:24.784Z,61
2022-07-30T11:59:25.878Z,60
2022-07-30T12:00:26.818Z,61
2022-07-30T12:01:27.897Z,62
2022-07-30T12:02:28.877Z,61
2022-07-30T12:03:29.888Z,60
2022-07-30T12:04:30.898Z,60
2022-07-30T12:05:31.921Z,60
2022-07-30T12:06:32.858Z,62
2022-07-30T12:07:33.958Z,62
2022-07-30T12:08:36.195Z,64
2022-07-30T12:09:35.818Z,64
2022-07-30T12:10:36.917Z,65
2022-07-30T12:11:37.869Z,64
2022-07-30T12:12:38.821Z,62
2022-07-30T12:13:44.704Z,61
2022-07-30T12:14:40.837Z,60
2022-07-30T12:15:41.817Z,60
2022-07-30T12:16:43.046Z,61
2022-07-30T12:17:43.898Z,61
2022-07-30T12:18:44.879Z,61
2022-07-30T12:19:47.640Z,62
2022-07-30T12:20:46.829Z,62
2022-07-30T12:21:52.442Z,64
2022-07-30T12:22:49.845Z,65
2022-07-30T12:23:50.997Z,66
2022-07-30T12:24:52.857Z,67
2022-07-30T12:25:53.837Z,68
2022-07-30T12:26:54.882Z,67
2022-07-30T12:27:56.201Z,68
2022-07-30T12:28:58.025Z,67
2022-07-30T12:29:59.953Z,67
2022-07-30T12:31:01.996Z,67
2022-07-30T12:32:04.558Z,67
2022-07-30T12:33:05.891Z,68
2022-07-30T12:34:06.958Z,67
2022-07-30T12:35:07.979Z,67
2022-07-30T12:36:09.592Z,67
2022-07-30T12:37:11.185Z,66
2022-07-30T12:38:13.117Z,67
2022-07-30T12:39:15.157Z,66
2022-07-30T12:40:16.969Z,66
2022-07-30T12:41:17.947Z,67
2022-07-30T12:42:19.916Z,67
2022-07-30T12:43:20.977Z,67
2022-07-30T12:44:22.957Z,67
2022-07-30T12:45:23.878Z,67
2022-07-30T12:46:24.865Z,67
2022-07-30T12:47:25.804Z,67
2022-07-30T12:48:26.937Z,67
2022-07-30T12:49:36.518Z,66
2022-07-30T12:50:28.929Z,66
2022-07-30T12:51:29.978Z,66
2022-07-30T12:52:31.550Z,66
2022-07-30T12:53:32.958Z,67
2022-07-30T12:54:34.236Z,67
2022-07-30T12:55:35.918Z,67
2022-07-30T12:56:37.010Z,68
2022-07-30T12:57:38.844Z,68
2022-07-30T12:58:40.278Z,70
2022-07-30T12:59:41.924Z,70
2022-07-30T13:00:43.940Z,70
2022-07-30T13:01:45.073Z,70
2022-07-30T13:02:45.977Z,70
2022-07-30T13:03:47.917Z,71
2022-07-30T13:04:54.803Z,70
2022-07-30T13:05:50.019Z,71
2022-07-30T13:06:52.038Z,73
2022-07-30T13:07:52.937Z,73
2022-07-30T13:08:55.017Z,74
2022-07-30T13:09:55.878Z,73
2022-07-30T13:10:56.998Z,77
2022-07-30T13:11:59.057Z,77
2022-07-30T13:13:00.936Z,76
2022-07-30T13:14:02.063Z,73
2022-07-30T13:15:03.978Z,74
2022-07-30T13:16:04.946Z,73
2022-07-30T13:17:06.740Z,81
2022-07-30T13:18:08.019Z,78
2022-07-30T13:19:10.105Z,76
2022-07-30T13:20:11.918Z,78
2022-07-30T13:21:12.947Z,74
2022-07-30T13:22:13.958Z,74
2022-07-30T13:23:15.267Z,73
2022-07-30T13:24:17.780Z,72
2022-07-30T13:25:17.828Z,73
2022-07-30T13:26:18.998Z,73
2022-07-30T13:27:19.878Z,74
2022-07-30T13:28:20.995Z,75
2022-07-30T13:29:22.954Z,77
2022-07-30T13:30:25.038Z,78
2022-07-30T13:31:26.037Z,77
2022-07-30T13:32:28.098Z,76
2022-07-30T13:33:30.008Z,75
2022-07-30T13:34:31.938Z,77
2022-07-30T13:35:32.998Z,77
2022-07-30T13:36:34.057Z,78
2022-07-30T13:37:41.297Z,80
2022-07-30T13:38:43.184Z,78
2022-07-30T13:39:45.059Z,79
2022-07-30T13:40:47.036Z,78
2022-07-30T13:41:47.999Z,80
2022-07-30T13:42:49.633Z,78
2022-07-30T13:43:52.012Z,77
2022-07-30T13:44:54.139Z,79
2022-07-30T13:45:59.945Z,79
2022-07-30T13:47:01.338Z,80
2022-07-30T13:47:58.001Z,81
2022-07-30T13:48:58.986Z,81
2022-07-30T13:50:00.287Z,81
2022-07-30T13:51:01.940Z,82
2022-07-30T13:52:02.921Z,78
2022-07-30T13:53:03.998Z,79
2022-07-30T13:54:04.957Z,81
2022-07-30T13:55:09.921Z,80
2022-07-30T13:56:12.619Z,81
2022-07-30T13:57:12.779Z,81
2022-07-30T13:58:13.739Z,81
2022-07-30T13:59:14.794Z,85
2022-07-30T14:00:15.861Z,81
2022-07-30T14:01:17.926Z,79
2022-07-30T14:02:17.897Z,79
2022-07-30T14:03:18.901Z,80
2022-07-30T14:04:20.758Z,81
2022-07-30T14:05:21.895Z,84
2022-07-30T14:06:22.882Z,86
2022-07-30T14:07:24.762Z,87
2022-07-30T14:08:25.860Z,87
2022-07-30T14:09:26.808Z,86
2022-07-30T14:10:27.838Z,85
2022-07-30T14:11:29.078Z,85
2022-07-30T14:12:30.820Z,84
2022-07-30T14:13:31.921Z,86
2022-07-30T14:14:33.817Z,84
2022-07-30T14:15:34.786Z,84
2022-07-30T14:16:44.980Z,81
2022-07-30T14:17:36.741Z,80
2022-07-30T14:18:37.859Z,80
2022-07-30T14:19:39.079Z,78
2022-07-30T14:20:40.855Z,78
2022-07-30T14:21:42.778Z,79
2022-07-30T14:22:43.837Z,78
2022-07-30T14:23:44.802Z,77
2022-07-30T14:24:45.824Z,78
2022-07-30T14:25:56.117Z,76
2022-07-30T14:26:58.421Z,76
2022-07-30T14:27:58.898Z,76
2022-07-30T14:28:59.898Z,77
2022-07-30T14:30:01.959Z,75
2022-07-30T14:31:02.833Z,75
2022-07-30T14:32:07.951Z,74
2022-07-30T14:33:09.758Z,75
2022-07-30T14:34:11.727Z,75
2022-07-30T14:35:12.659Z,77
2022-07-30T14:36:13.844Z,77
2022-07-30T14:37:15.917Z,76
2022-07-30T14:38:17.735Z,74